KCNY/CNY METAR and TAF weather

Enter ICAO airport designator
Station Type Date Time Source
KCNY METAR 2019/08/24 19:53 UTC NOAA

KCNY 241953Z AUTO 30014G20KT 270V340 10SM CLR 34/M02 A3001 RMK AO2 SLP096 T03441022


Station Type Date Time Source
KCNY Decoded METAR 2019/08/24 19:53 UTC NOAA

Station name not available
Aug 24, 2019 - 03:53 PM EDT / 2019.08.24 1953 UTC
Wind: from the WNW (300 degrees) at 16 MPH (14 KT) gusting to 23 MPH (20 KT) (direction variable):0
Visibility: 10 mile(s):0
Sky conditions: clear
Temperature: 93.9 F (34.4 C)
Dew Point: 28.0 F (-2.2 C)
Relative Humidity: 9%
Pressure (altimeter): 30.01 in. Hg (1016 hPa)
ob: KCNY 241953Z AUTO 30014G20KT 270V340 10SM CLR 34/M02 A3001 RMK AO2 SLP096 T03441022
cycle: 20

Station Type Date Time Source
KCNY TAF 2019/08/24 18:22 UTC NOAA

TAF KCNY 241720Z 2418/2518 27011KT P6SM SKC
FM250200 26008KT P6SM FEW180 FEW250
FM250400 VRB04KT P6SM SKC

Example: see airport list